Broadlands, Illinois
Current Conditions -  °F | °C
As of 1:53 AM on Monday 29 Dec 2014 (Local Time) from KCMI Reporting Station
Clear Clear  
Wind Chill: 20°   Ceiling: Unl
Heat Index: 20°   Visibility: 9mi
Dew Point: 16°   Wind: 3mph
Humidity: 85%   Direction: 10°N
Pressure: 30.26"   Gusts: NA
Location:  39.91°N, 87.99°W
Report Text: KCMI 290753Z AUTO 01003KT 9SM CLR M07/M09 A3026 RMK AO2 SLP257 I1000 T10671089
Loading
Personal Weather Stations






























Interactive Weather Map New forecast layout! Learn more

10-Day Weather Forecast

Advertisements
Track Severe Weather on mobile